Wednesday, October 01, 2014
00:03 UTC
  |  Log In   |  Register Free
Airport Search:

Shenandoah Valley Regional Airport
(KSHD)

Shenandoah Valley Regional Airport Diagram
No Airport Diagram Available

FAA data valid effective September 18, 2014 - November 13, 2014 (unless otherwise noted).

 
 
 
 
 
 
 
 
 
 
 
 
 
 

Current Aviation Weather for Shenandoah Valley Regional Airport (KSHD)

The most recent METAR observation for KSHD was updated at: 2318
METAR Summary (Translated METAR)
KSHD
302255Z AUTO 16003KT 7SM BKN090 OVC110 21/15 A2990 RMK AO2 T02120150
KCHO
302253Z 18004KT 9SM BKN018 18/16 A2989 RMK AO2 SLP118 T01830161
(22.2 nm SE from KSHD)
KGVE
302255Z AUTO 00000KT 10SM BKN017 19/16 A2989 RMK AO1 T01850164
(35.1 nm SE from KSHD)
TAF Summary (Translated TAF)
KCHO
(22.2 nm SE from KSHD)
302053Z 3021/0118 12005KT P6SM BKN015 FM302300 00000KT P6SM BKN110 FM010100 00000KT 5SM BR BKN060 FM010300 00000KT 2SM BR BKN045 FM010600 00000KT 1/2SM FG BKN008 FM011200 00000KT 1 1/2SM BR BKN003 FM011400 00000KT 1 1/2SM BR BKN008 FM011600 00000KT P6SM BKN050
  Airport Weather Conditions for KSHD

 Current Weather at SHD
70° F
Overcast
South winds at 3.5 mph
SHD NOAA Radar

Pressure: 29.90 in
Humidity: 68%
Wind: South at 3.5 MPH (3 KT)
Dew Point: 59.0°F
Visibility: 7.00 mi


Airport Weather Forecast for KSHD

Translated METAR and TAF for KSHD
Translated METAR for KSHD (2358 UTC 30 September 2014)
found at http://aviationweather.gov/adds/metars/
 
METAR text: KSHD 302335Z AUTO 00000KT 4SM HZ SCT090 20/15 A2991 RMK AO2 T01970146
Conditions at: KSHD (STAUNTON/SHENAND, VA, US) observed 2335 UTC 30 September 2014
Temperature: 19.7°C (67°F)
Dewpoint: 14.6°C (58°F) [RH = 72%]
Pressure (altimeter): 29.91 inches Hg (1013.0 mb)
Winds: calm
Visibility: 4 miles (6 km)
Ceiling: at least 12,000 feet AGL
Clouds: scattered clouds at 9000 feet AGL
Weather: HZ  (haze)
Translated TAF for KSHD

There is no translated TAF available for this airport

Find All Airport Services Find A Hotel Find A Rental Car Find A Golf Course Find A Restaurant $100 Hamburger



FBO's on the Field
FBO Company Facility Photos Services Transportation Aviation Fuel Prices: Prices include tax
Catering Weather Repair Courtesy Rental Type 100LL JetA JetA+ MOGAS 8087
 
Avnet Shenandoah Valley

This FBO has not yet been rated
FS:Avfuel
Last Updated: Sep-30
Login to update fuel prices
SS:
Contact Avnet Shenandoah ValleyMore FBO Information
 
Add another FBO Facility Photos Catering Weather Repair Courtesy Rental Type 100LL JetA JetA+ MOGAS 8087
Services Transportation Aviation Fuel Prices: Prices include tax


model-print
model-print
model-print
model-print